Arverne, NY

9:46 AM EST on December 07, 2016 (GMT -0500)
Rockaway - WeatherMan Ken | | Change Station

Elev 7 ft 40.58 °N, 73.84 °W | Updated 19 seconds ago

Light Drizzle
Light Drizzle Mist
41.4 °F
Feels Like 37 °F
N
7.0
Wind Variable Wind from NNW

Today
High -- | Low -- °F
--% Chance of Precip.
Yesterday
High -- | Low -- °F
Precip. -- in
Pressure 30.00 in
Visibility 6.0 miles
Clouds Overcast 900 ft
Windchill 37 °F
Dew Point 40 °F
Humidity 95%
Rainfall 0.00 in
Snow Depth Not available.
7:05 AM 4:28 PM
First Quarter, 53% visible
METAR KJFK 071351Z 36007KT 6SM -DZ BR OVC009 06/04 A3000 RMK AO2 DZB43 SLP158 P0000 T00610039 CHINO W $
Pressure 30.00 in
Visibility 6.0 miles
Clouds Overcast 900 ft
Windchill 37 °F
Dew Point 40 °F
Humidity 95%
Rainfall 0.00 in
Snow Depth Not available.
7:05 AM 4:28 PM
First Quarter, 53% visible
METAR KJFK 071351Z 36007KT 6SM -DZ BR OVC009 06/04 A3000 RMK AO2 DZB43 SLP158 P0000 T00610039 CHINO W $

10-Day Weather Forecast

Almanac

Astronomy

Dec. 07, 2016 Rise Set
Actual Time
Civil Twilight
Nautical Twilight
Astronomical Twilight
Moon
Length of Visible Light
Length of Day
Tomorrow will be .
, % of the Moon is Illuminated

Today's Extremes

State Highs State Lows

Community

WunderPhotos

Upload Photos

1,956,116 photos uploaded!

WunderBlog® & News

Nearby

Air Quality

  Air Quality AQ Index Pollutant
Not available.

Snow Depth

Station Depth Elevation

Earthquake Activity

City Distance Mag. Time & Date
Minimum magnitude displayed is 2.5.

Coastal Water Temperatures

Place Temperature

Stations

Nearby Weather Stations

Station Location Temp. Windchill Dew Point Humidity Wind Precip. Elev Updated Type
                   

Watches & Warnings

There are currently no watches in effect.